Time;durP1;ratioP1;P1;durP2;ratioP2;P2;SDS_P1;SDS_P2;PMS_P1;PMS_P2;Temp;Humidity;BMP_temperature;BMP_pressure;BME280_temperature;BME280_humidity;BME280_pressure;Samples;Min_cycle;Max_cycle;Signal;HPM_P1;HPM_P2
2020/12/26 00:01:14;;;;;;;16.23;7.97;;;;;;;;;;4959469;28;20185;-71
2020/12/26 00:03:39;;;;;;;13.30;8.27;;;;;;;;;;4952916;28;20212;-73
2020/12/26 00:06:04;;;;;;;14.20;8.13;;;;;;;;;;4953395;28;20243;-71
2020/12/26 00:08:30;;;;;;;14.00;9.43;;;;;;;;;;4952558;28;20184;-72
2020/12/26 00:10:55;;;;;;;10.80;7.60;;;;;;;;;;4954221;28;20705;-72
2020/12/26 00:13:20;;;;;;;18.17;9.33;;;;;;;;;;4955603;28;20654;-72
2020/12/26 00:15:46;;;;;;;13.83;8.80;;;;;;;;;;4958070;28;20191;-72
2020/12/26 00:18:11;;;;;;;15.18;8.60;;;;;;;;;;4954815;28;20216;-74
2020/12/26 00:20:36;;;;;;;14.53;8.53;;;;;;;;;;4953853;28;20831;-73
2020/12/26 00:23:01;;;;;;;14.23;7.70;;;;;;;;;;4961358;28;20218;-73
2020/12/26 00:25:26;;;;;;;9.27;7.47;;;;;;;;;;4956845;28;20185;-74
2020/12/26 00:27:51;;;;;;;15.40;7.87;;;;;;;;;;4956720;28;20747;-73
2020/12/26 00:30:16;;;;;;;11.47;7.57;;;;;;;;;;4950018;28;20185;-74
2020/12/26 00:32:42;;;;;;;12.57;7.20;;;;;;;;;;4952479;28;20207;-73
2020/12/26 00:35:07;;;;;;;14.47;8.27;;;;;;;;;;4948680;28;20777;-73
2020/12/26 00:37:32;;;;;;;20.27;7.07;;;;;;;;;;4953463;28;20183;-73
2020/12/26 00:39:57;;;;;;;14.43;7.80;;;;;;;;;;4950201;28;20248;-73
2020/12/26 00:42:22;;;;;;;9.83;6.57;;;;;;;;;;4952715;28;20189;-73
2020/12/26 00:44:47;;;;;;;11.17;7.80;;;;;;;;;;4952698;28;20255;-71
2020/12/26 00:47:13;;;;;;;10.00;6.93;;;;;;;;;;4954184;28;20197;-73
2020/12/26 00:49:41;;;;;;;15.43;7.83;;;;;;;;;;4954453;28;20184;-74
2020/12/26 00:52:07;;;;;;;12.50;7.60;;;;;;;;;;4955407;28;20192;-73
2020/12/26 00:54:32;;;;;;;13.93;6.60;;;;;;;;;;4957232;28;20623;-73
2020/12/26 00:56:57;;;;;;;10.97;6.97;;;;;;;;;;4955071;28;20212;-73
2020/12/26 00:59:22;;;;;;;8.30;6.33;;;;;;;;;;4951987;28;20249;-73
2020/12/26 01:01:52;;;;;;;8.23;5.88;;;;;;;;;;4956070;28;20191;-73
2020/12/26 01:04:17;;;;;;;9.30;4.73;;;;;;;;;;4953051;28;20316;-73
2020/12/26 01:06:42;;;;;;;9.15;4.50;;;;;;;;;;4952741;28;20704;-73
2020/12/26 01:09:07;;;;;;;8.83;4.97;;;;;;;;;;4954560;28;20196;-73
2020/12/26 01:11:33;;;;;;;6.47;4.83;;;;;;;;;;4968646;28;20207;-73
2020/12/26 01:13:58;;;;;;;8.73;4.10;;;;;;;;;;4955776;28;20208;-73
2020/12/26 01:16:23;;;;;;;5.72;3.45;;;;;;;;;;4954542;28;20684;-73
2020/12/26 01:18:48;;;;;;;5.93;3.20;;;;;;;;;;4953623;28;20195;-72
2020/12/26 01:21:13;;;;;;;4.23;2.73;;;;;;;;;;4952815;28;20182;-72
2020/12/26 01:23:39;;;;;;;6.93;3.07;;;;;;;;;;4952973;28;20685;-72
2020/12/26 01:26:05;;;;;;;5.27;2.47;;;;;;;;;;4952125;28;20262;-72
2020/12/26 01:28:30;;;;;;;4.33;3.73;;;;;;;;;;4951468;28;20274;-72
2020/12/26 01:30:55;;;;;;;7.23;2.73;;;;;;;;;;4951419;28;20822;-73
2020/12/26 01:33:20;;;;;;;3.00;1.90;;;;;;;;;;4947107;28;20212;-72
2020/12/26 01:35:45;;;;;;;2.43;2.10;;;;;;;;;;4947546;28;20568;-72
2020/12/26 01:38:10;;;;;;;2.97;1.60;;;;;;;;;;4950661;28;20216;-72
2020/12/26 01:40:36;;;;;;;5.07;1.63;;;;;;;;;;4965130;28;20498;-73
2020/12/26 01:43:05;;;;;;;3.30;1.83;;;;;;;;;;4954523;28;20732;-73
2020/12/26 01:45:30;;;;;;;5.53;1.97;;;;;;;;;;4950404;28;20269;-73
2020/12/26 01:47:55;;;;;;;3.33;2.03;;;;;;;;;;4951897;28;20656;-73
2020/12/26 01:50:21;;;;;;;4.63;2.00;;;;;;;;;;4953335;28;20218;-73
2020/12/26 01:52:47;;;;;;;2.93;2.27;;;;;;;;;;4952681;28;20265;-73
2020/12/26 01:55:13;;;;;;;3.37;2.43;;;;;;;;;;4950977;28;20592;-73
2020/12/26 01:57:48;;;;;;;2.70;2.20;;;;;;;;;;4951887;28;21527;-73
2020/12/26 02:00:13;;;;;;;3.87;2.40;;;;;;;;;;4950969;28;20214;-73
2020/12/26 02:02:40;;;;;;;8.60;3.20;;;;;;;;;;4950429;28;20200;-73
2020/12/26 02:05:05;;;;;;;2.70;2.17;;;;;;;;;;4952427;28;20741;-73
2020/12/26 02:07:30;;;;;;;6.00;2.50;;;;;;;;;;4950356;28;20200;-73
2020/12/26 02:09:55;;;;;;;4.47;3.07;;;;;;;;;;4953151;28;20201;-73
2020/12/26 02:12:21;;;;;;;6.03;3.43;;;;;;;;;;4952538;28;21305;-73
2020/12/26 02:14:46;;;;;;;5.00;3.00;;;;;;;;;;4952780;28;20176;-73
2020/12/26 02:17:12;;;;;;;5.20;3.13;;;;;;;;;;4956334;28;20193;-73
2020/12/26 02:19:37;;;;;;;5.30;3.13;;;;;;;;;;4950467;28;20216;-73
2020/12/26 02:22:02;;;;;;;4.90;3.43;;;;;;;;;;4952290;28;20219;-73
2020/12/26 02:24:27;;;;;;;6.73;3.57;;;;;;;;;;4951728;28;20200;-73
2020/12/26 02:26:53;;;;;;;3.97;3.27;;;;;;;;;;4962086;28;20259;-73
2020/12/26 02:29:18;;;;;;;3.97;3.40;;;;;;;;;;4954044;28;20189;-72
2020/12/26 02:31:43;;;;;;;5.93;3.83;;;;;;;;;;4957821;28;20181;-73
2020/12/26 02:34:08;;;;;;;4.93;3.90;;;;;;;;;;4963001;28;20283;-73
2020/12/26 02:36:34;;;;;;;6.40;4.47;;;;;;;;;;4968500;28;20188;-74
2020/12/26 02:38:59;;;;;;;8.57;4.83;;;;;;;;;;4951725;28;20706;-73
2020/12/26 02:41:24;;;;;;;7.70;5.17;;;;;;;;;;4956369;28;20213;-72
2020/12/26 02:43:49;;;;;;;6.17;4.97;;;;;;;;;;4958979;28;20343;-73
2020/12/26 02:46:14;;;;;;;7.63;5.47;;;;;;;;;;4956514;28;20669;-73
2020/12/26 02:48:39;;;;;;;6.83;5.57;;;;;;;;;;4959906;28;20238;-73
2020/12/26 02:51:05;;;;;;;7.87;5.43;;;;;;;;;;4953372;28;20219;-73
2020/12/26 02:53:30;;;;;;;8.40;5.80;;;;;;;;;;4954019;28;20236;-73
2020/12/26 02:55:55;;;;;;;7.77;5.40;;;;;;;;;;4953593;28;20279;-73
2020/12/26 02:58:20;;;;;;;6.23;5.53;;;;;;;;;;4957005;28;20240;-73
2020/12/26 03:00:46;;;;;;;10.83;5.03;;;;;;;;;;4958205;28;20279;-73
2020/12/26 03:03:11;;;;;;;7.80;5.23;;;;;;;;;;4953455;28;20211;-73
2020/12/26 03:05:36;;;;;;;12.23;5.53;;;;;;;;;;4954397;28;20219;-73
2020/12/26 03:08:02;;;;;;;9.67;5.10;;;;;;;;;;4955456;28;20307;-73
2020/12/26 03:10:27;;;;;;;11.13;5.50;;;;;;;;;;4952190;28;20203;-73
2020/12/26 03:12:52;;;;;;;6.33;4.70;;;;;;;;;;4958270;28;20204;-73
2020/12/26 03:15:18;;;;;;;5.63;3.80;;;;;;;;;;4963222;28;20176;-73
2020/12/26 03:17:43;;;;;;;7.57;3.80;;;;;;;;;;4956339;28;20186;-73
2020/12/26 03:20:09;;;;;;;3.40;3.03;;;;;;;;;;4960286;28;20212;-73
2020/12/26 03:22:34;;;;;;;8.97;3.97;;;;;;;;;;4971828;28;20571;-73
2020/12/26 03:24:59;;;;;;;7.33;3.70;;;;;;;;;;4953918;28;20220;-73
2020/12/26 03:27:24;;;;;;;3.87;3.30;;;;;;;;;;4954174;28;20226;-73
2020/12/26 03:29:50;;;;;;;4.73;2.70;;;;;;;;;;4954886;28;20188;-73
2020/12/26 03:32:16;;;;;;;5.00;2.43;;;;;;;;;;4951794;28;20720;-73
2020/12/26 03:34:41;;;;;;;5.93;2.63;;;;;;;;;;4951918;28;20192;-73
2020/12/26 03:37:06;;;;;;;8.30;2.67;;;;;;;;;;4953502;28;20192;-73
2020/12/26 03:39:38;;;;;;;5.17;2.80;;;;;;;;;;4953452;28;20222;-73
2020/12/26 03:42:04;;;;;;;6.97;2.30;;;;;;;;;;4953570;28;20181;-73
2020/12/26 03:44:29;;;;;;;3.20;1.80;;;;;;;;;;4952597;28;20213;-71
2020/12/26 03:46:54;;;;;;;5.47;1.63;;;;;;;;;;4956918;28;20666;-72
2020/12/26 03:49:19;;;;;;;3.57;1.70;;;;;;;;;;4958563;28;20239;-71
2020/12/26 03:51:44;;;;;;;4.90;2.20;;;;;;;;;;4953744;28;20625;-72
2020/12/26 03:54:10;;;;;;;3.23;1.47;;;;;;;;;;4955569;28;20208;-72
2020/12/26 03:56:35;;;;;;;3.87;1.67;;;;;;;;;;4955640;28;20231;-72
2020/12/26 03:59:00;;;;;;;11.00;1.90;;;;;;;;;;4953861;28;20215;-72
2020/12/26 04:01:25;;;;;;;4.83;1.50;;;;;;;;;;4953642;28;20259;-72
2020/12/26 04:03:50;;;;;;;4.17;1.63;;;;;;;;;;4953198;28;20216;-72
2020/12/26 04:06:15;;;;;;;5.53;1.60;;;;;;;;;;4952029;28;20251;-72
2020/12/26 04:08:41;;;;;;;5.63;1.60;;;;;;;;;;4951456;28;20208;-72
2020/12/26 04:11:06;;;;;;;4.60;1.50;;;;;;;;;;4955047;28;20223;-72
2020/12/26 04:13:31;;;;;;;2.67;1.43;;;;;;;;;;4953142;28;20637;-72
2020/12/26 04:15:56;;;;;;;6.43;1.80;;;;;;;;;;4958631;28;20276;-72
2020/12/26 04:18:21;;;;;;;3.87;1.60;;;;;;;;;;4953847;28;20223;-72
2020/12/26 04:20:46;;;;;;;5.33;2.50;;;;;;;;;;4951182;28;20188;-72
2020/12/26 04:23:12;;;;;;;5.53;1.95;;;;;;;;;;4957461;28;20274;-72
2020/12/26 04:25:37;;;;;;;6.87;1.80;;;;;;;;;;4952722;28;20194;-72
2020/12/26 04:28:02;;;;;;;5.37;1.40;;;;;;;;;;4973346;28;20263;-72
2020/12/26 04:30:27;;;;;;;3.23;1.53;;;;;;;;;;4958441;28;20678;-72
2020/12/26 04:32:52;;;;;;;3.57;1.37;;;;;;;;;;4952085;28;20240;-72
2020/12/26 04:35:20;;;;;;;11.80;2.07;;;;;;;;;;4950912;28;20573;-72
2020/12/26 04:37:45;;;;;;;4.47;1.20;;;;;;;;;;4951420;28;20192;-72
2020/12/26 04:40:11;;;;;;;6.77;1.40;;;;;;;;;;4951982;28;20216;-72
2020/12/26 04:42:37;;;;;;;5.00;1.50;;;;;;;;;;4952946;28;20299;-72
2020/12/26 04:45:02;;;;;;;3.90;1.43;;;;;;;;;;4952359;28;20238;-72
2020/12/26 04:47:37;;;;;;;3.20;1.30;;;;;;;;;;4953619;28;20784;-72
2020/12/26 04:50:02;;;;;;;3.37;1.27;;;;;;;;;;4960253;28;20268;-72
2020/12/26 04:52:29;;;;;;;4.73;1.33;;;;;;;;;;4955068;28;20665;-72
2020/12/26 04:54:54;;;;;;;3.60;1.47;;;;;;;;;;4953857;28;20192;-72
2020/12/26 04:57:20;;;;;;;4.23;1.50;;;;;;;;;;4953143;28;20262;-72
2020/12/26 04:59:45;;;;;;;3.60;1.33;;;;;;;;;;4952302;28;20309;-72
2020/12/26 05:02:12;;;;;;;8.53;2.50;;;;;;;;;;4951068;28;20200;-72
2020/12/26 05:04:38;;;;;;;4.63;1.80;;;;;;;;;;4949658;28;22081;-72
2020/12/26 05:07:03;;;;;;;4.53;1.87;;;;;;;;;;4951017;28;20176;-72
2020/12/26 05:09:28;;;;;;;5.82;2.70;;;;;;;;;;4951251;28;20220;-73
2020/12/26 05:11:57;;;;;;;4.83;2.00;;;;;;;;;;4949337;28;20192;-72
2020/12/26 05:14:23;;;;;;;6.17;1.90;;;;;;;;;;4952971;28;20247;-72
2020/12/26 05:16:48;;;;;;;3.73;1.93;;;;;;;;;;4960559;28;20219;-72
2020/12/26 05:19:14;;;;;;;9.93;2.20;;;;;;;;;;4950938;28;20732;-72
2020/12/26 05:21:39;;;;;;;5.47;1.90;;;;;;;;;;4951221;28;20180;-72
2020/12/26 05:24:05;;;;;;;6.60;2.20;;;;;;;;;;4954527;28;20207;-72
2020/12/26 05:26:31;;;;;;;4.90;2.03;;;;;;;;;;4951546;28;20180;-73
2020/12/26 05:28:59;;;;;;;3.60;1.80;;;;;;;;;;4950151;28;20180;-73
2020/12/26 05:31:41;;;;;;;4.73;2.07;;;;;;;;;;4950289;28;20181;-73
2020/12/26 05:34:08;;;;;;;2.23;1.87;;;;;;;;;;4950448;28;20283;-73
2020/12/26 05:36:33;;;;;;;3.70;1.97;;;;;;;;;;4952666;28;20193;-73
2020/12/26 05:38:58;;;;;;;4.43;1.70;;;;;;;;;;4952396;28;20259;-73
2020/12/26 05:41:23;;;;;;;6.70;1.70;;;;;;;;;;4950592;28;20579;-73
2020/12/26 05:43:49;;;;;;;9.30;2.20;;;;;;;;;;4952754;28;20196;-73
2020/12/26 05:46:14;;;;;;;6.90;1.80;;;;;;;;;;4951961;28;20681;-73
2020/12/26 05:48:39;;;;;;;4.73;1.33;;;;;;;;;;4957519;28;20370;-72
2020/12/26 05:51:04;;;;;;;3.43;1.37;;;;;;;;;;4954239;28;20189;-73
2020/12/26 05:53:29;;;;;;;6.07;1.70;;;;;;;;;;4958129;28;20261;-72
2020/12/26 05:55:55;;;;;;;3.10;2.17;;;;;;;;;;4970561;28;20692;-73
2020/12/26 05:58:24;;;;;;;4.43;1.53;;;;;;;;;;4959000;28;20619;-73
2020/12/26 06:00:50;;;;;;;4.57;1.40;;;;;;;;;;4951923;28;20189;-73
2020/12/26 06:03:29;;;;;;;2.33;1.40;;;;;;;;;;4956102;28;20220;-73
2020/12/26 06:05:57;;;;;;;2.83;1.33;;;;;;;;;;4955112;28;20199;-73
2020/12/26 06:08:23;;;;;;;4.97;1.80;;;;;;;;;;4954600;28;20188;-73
2020/12/26 06:10:55;;;;;;;6.60;1.60;;;;;;;;;;4954136;28;20196;-73
2020/12/26 06:13:21;;;;;;;4.47;1.57;;;;;;;;;;4953514;28;20344;-73
2020/12/26 06:15:53;;;;;;;3.23;1.50;;;;;;;;;;4963491;28;20267;-73
2020/12/26 06:18:19;;;;;;;3.60;1.40;;;;;;;;;;4963982;28;20184;-73
2020/12/26 06:20:45;;;;;;;1.87;1.43;;;;;;;;;;4974040;28;20206;-73
2020/12/26 06:23:17;;;;;;;2.10;1.50;;;;;;;;;;4959254;28;20362;-73
2020/12/26 06:25:43;;;;;;;4.70;2.00;;;;;;;;;;4954951;28;20183;-73
2020/12/26 06:28:16;;;;;;;4.27;1.33;;;;;;;;;;4953997;28;20227;-73
2020/12/26 06:30:41;;;;;;;3.20;1.50;;;;;;;;;;4961089;28;20187;-73
2020/12/26 06:33:07;;;;;;;9.87;2.00;;;;;;;;;;4958168;28;20579;-73
2020/12/26 06:35:32;;;;;;;4.33;1.60;;;;;;;;;;4957283;28;20555;-73
2020/12/26 06:38:10;;;;;;;5.00;1.60;;;;;;;;;;4955876;28;20259;-73
2020/12/26 06:40:35;;;;;;;2.73;1.60;;;;;;;;;;4952980;28;20206;-72
2020/12/26 06:43:01;;;;;;;8.83;1.97;;;;;;;;;;4954931;28;20196;-73
2020/12/26 06:45:30;;;;;;;3.03;1.60;;;;;;;;;;4958066;28;20845;-73
2020/12/26 06:47:55;;;;;;;5.83;1.83;;;;;;;;;;4960163;28;20272;-73
2020/12/26 06:50:24;;;;;;;4.47;1.90;;;;;;;;;;4963378;28;20204;-73
2020/12/26 06:52:50;;;;;;;5.10;2.43;;;;;;;;;;4970369;28;20204;-73
2020/12/26 06:55:33;;;;;;;8.30;2.27;;;;;;;;;;4967503;28;20196;-73
2020/12/26 06:57:59;;;;;;;5.13;2.00;;;;;;;;;;4962567;28;20214;-73
2020/12/26 07:00:27;;;;;;;6.43;2.73;;;;;;;;;;4965161;28;20212;-73
2020/12/26 07:03:22;;;;;;;7.30;2.13;;;;;;;;;;4966270;28;20208;-73
2020/12/26 07:05:47;;;;;;;4.27;2.50;;;;;;;;;;4970069;28;20260;-72
2020/12/26 07:08:33;;;;;;;5.43;2.70;;;;;;;;;;4973475;28;20180;-73
2020/12/26 07:10:59;;;;;;;3.30;2.10;;;;;;;;;;4962419;28;20197;-72
2020/12/26 07:13:43;;;;;;;5.63;2.70;;;;;;;;;;4963161;28;20227;-72
2020/12/26 07:16:27;;;;;;;7.60;4.10;;;;;;;;;;4957990;28;20323;-72
2020/12/26 07:18:52;;;;;;;7.10;3.00;;;;;;;;;;4954590;28;20242;-72
2020/12/26 07:21:20;;;;;;;8.50;3.60;;;;;;;;;;4955546;28;20188;-72
2020/12/26 07:23:49;;;;;;;8.63;3.77;;;;;;;;;;4955080;28;20196;-72
2020/12/26 07:26:17;;;;;;;10.50;3.60;;;;;;;;;;4956915;28;20184;-72
2020/12/26 07:28:42;;;;;;;12.27;4.00;;;;;;;;;;4954716;28;20211;-73
2020/12/26 07:31:16;;;;;;;8.37;3.80;;;;;;;;;;4954484;28;20275;-72
2020/12/26 07:33:41;;;;;;;5.47;3.90;;;;;;;;;;4953689;28;20208;-72
2020/12/26 07:36:18;;;;;;;10.93;4.10;;;;;;;;;;4953428;28;20203;-72
2020/12/26 07:38:43;;;;;;;10.23;4.43;;;;;;;;;;4952661;28;20219;-73
2020/12/26 07:41:11;;;;;;;8.33;4.63;;;;;;;;;;4969142;28;20177;-73
2020/12/26 07:43:37;;;;;;;7.73;5.03;;;;;;;;;;4952075;28;20201;-73
2020/12/26 07:46:02;;;;;;;7.43;5.23;;;;;;;;;;4953255;28;20172;-73
2020/12/26 07:48:27;;;;;;;7.57;5.10;;;;;;;;;;4952519;28;20184;-71
2020/12/26 07:50:52;;;;;;;8.43;5.47;;;;;;;;;;4954164;28;20252;-74
2020/12/26 07:53:18;;;;;;;7.23;5.27;;;;;;;;;;4951679;28;20308;-75
2020/12/26 07:55:43;;;;;;;8.43;5.07;;;;;;;;;;4957979;28;20189;-73
2020/12/26 07:58:18;;;;;;;7.20;5.10;;;;;;;;;;4951938;28;20941;-73
2020/12/26 08:00:44;;;;;;;6.07;5.47;;;;;;;;;;4953852;28;20903;-73
2020/12/26 08:03:10;;;;;;;10.40;5.80;;;;;;;;;;4952043;28;20211;-74
2020/12/26 08:05:37;;;;;;;7.03;5.77;;;;;;;;;;4951781;28;20726;-73
2020/12/26 08:08:12;;;;;;;13.20;6.23;;;;;;;;;;4953909;28;20181;-73
2020/12/26 08:10:37;;;;;;;12.83;6.57;;;;;;;;;;4953400;28;20185;-73
2020/12/26 08:13:03;;;;;;;9.40;7.23;;;;;;;;;;4955780;28;21300;-73
2020/12/26 08:15:28;;;;;;;11.83;7.23;;;;;;;;;;4961208;28;20176;-73
2020/12/26 08:17:55;;;;;;;13.87;7.13;;;;;;;;;;4954987;28;20750;-71
2020/12/26 08:20:21;;;;;;;9.43;7.20;;;;;;;;;;4952820;28;20208;-72
2020/12/26 08:22:46;;;;;;;8.70;7.43;;;;;;;;;;4952165;28;20595;-72
2020/12/26 08:25:12;;;;;;;12.63;8.87;;;;;;;;;;4961145;28;20219;-72
2020/12/26 08:27:38;;;;;;;6.90;6.20;;;;;;;;;;4949360;28;20290;-72
2020/12/26 08:30:05;;;;;;;10.83;6.90;;;;;;;;;;4953169;28;20654;-74
2020/12/26 08:32:32;;;;;;;9.10;6.40;;;;;;;;;;4952503;28;20235;-72
2020/12/26 08:35:00;;;;;;;10.20;6.80;;;;;;;;;;4950973;28;20310;-73
2020/12/26 08:37:28;;;;;;;10.23;6.83;;;;;;;;;;4953125;28;20193;-73
2020/12/26 08:39:56;;;;;;;10.43;6.90;;;;;;;;;;4950263;28;20873;-73
2020/12/26 08:42:21;;;;;;;18.70;6.83;;;;;;;;;;4957754;28;20185;-73
2020/12/26 08:44:46;;;;;;;13.10;6.70;;;;;;;;;;4950549;28;20188;-74
2020/12/26 08:47:11;;;;;;;9.77;6.43;;;;;;;;;;4953490;28;20777;-72
2020/12/26 08:49:43;;;;;;;10.50;6.80;;;;;;;;;;4952641;28;20277;-72
2020/12/26 08:52:09;;;;;;;13.23;5.80;;;;;;;;;;4954095;28;20254;-74
2020/12/26 08:54:34;;;;;;;14.00;5.97;;;;;;;;;;4951810;28;20215;-73
2020/12/26 08:56:59;;;;;;;8.90;6.20;;;;;;;;;;4952705;28;20642;-73
2020/12/26 08:59:27;;;;;;;10.13;5.93;;;;;;;;;;4954138;28;20271;-73
2020/12/26 09:01:54;;;;;;;10.30;6.77;;;;;;;;;;4955195;28;20189;-73
2020/12/26 09:04:19;;;;;;;10.40;5.93;;;;;;;;;;4955054;28;20232;-74
2020/12/26 09:06:45;;;;;;;7.90;6.00;;;;;;;;;;4950601;28;20180;-73
2020/12/26 09:09:15;;;;;;;7.57;4.73;;;;;;;;;;4950800;28;20177;-73
2020/12/26 09:11:40;;;;;;;6.27;4.83;;;;;;;;;;4951188;28;20195;-73
2020/12/26 09:14:18;;;;;;;6.67;4.73;;;;;;;;;;4953376;28;20209;-74
2020/12/26 09:16:43;;;;;;;6.83;4.73;;;;;;;;;;4957157;28;20255;-74
2020/12/26 09:19:09;;;;;;;7.23;4.80;;;;;;;;;;4951574;28;20213;-72
2020/12/26 09:21:34;;;;;;;8.57;4.73;;;;;;;;;;4956917;28;20176;-74
2020/12/26 09:23:59;;;;;;;5.83;4.13;;;;;;;;;;4955239;28;20211;-72
2020/12/26 09:26:25;;;;;;;4.83;3.37;;;;;;;;;;4957351;28;20216;-72
2020/12/26 09:29:03;;;;;;;9.73;3.60;;;;;;;;;;4951154;28;20188;-73
2020/12/26 09:31:30;;;;;;;6.47;3.57;;;;;;;;;;4953393;28;20188;-73
2020/12/26 09:33:56;;;;;;;6.50;3.60;;;;;;;;;;4950065;28;20278;-73
2020/12/26 09:36:23;;;;;;;8.23;3.37;;;;;;;;;;4951030;28;20200;-73
2020/12/26 09:38:49;;;;;;;7.27;3.87;;;;;;;;;;4950716;28;20218;-73
2020/12/26 09:41:15;;;;;;;7.43;3.53;;;;;;;;;;4952486;28;20188;-73
2020/12/26 09:43:41;;;;;;;6.43;3.40;;;;;;;;;;4951786;28;20196;-73
2020/12/26 09:46:06;;;;;;;5.47;3.00;;;;;;;;;;4951160;28;20187;-74
2020/12/26 09:48:32;;;;;;;7.47;3.47;;;;;;;;;;4952183;28;20225;-74
2020/12/26 09:50:57;;;;;;;7.53;3.77;;;;;;;;;;4962879;28;20180;-73
2020/12/26 09:53:22;;;;;;;5.40;3.40;;;;;;;;;;4954500;28;20204;-73
2020/12/26 09:55:47;;;;;;;7.57;3.30;;;;;;;;;;4952513;28;20915;-73
2020/12/26 09:58:12;;;;;;;7.50;3.93;;;;;;;;;;4949863;28;20226;-74
2020/12/26 10:00:37;;;;;;;8.17;3.50;;;;;;;;;;4950090;28;20834;-73
2020/12/26 10:03:03;;;;;;;7.13;4.40;;;;;;;;;;4952823;28;20204;-74
2020/12/26 10:05:28;;;;;;;6.60;3.67;;;;;;;;;;4951458;28;20181;-73
2020/12/26 10:07:53;;;;;;;6.77;3.40;;;;;;;;;;4951122;28;20177;-75
2020/12/26 10:10:18;;;;;;;5.87;3.63;;;;;;;;;;4952974;28;20206;-72
2020/12/26 10:12:43;;;;;;;6.13;3.57;;;;;;;;;;4952150;28;20327;-72
2020/12/26 10:15:09;;;;;;;5.53;3.33;;;;;;;;;;4957360;28;20173;-74
2020/12/26 10:17:34;;;;;;;6.10;3.80;;;;;;;;;;4956348;28;20179;-73
2020/12/26 10:19:59;;;;;;;12.20;4.30;;;;;;;;;;4951298;28;20270;-74
2020/12/26 10:22:24;;;;;;;7.30;3.93;;;;;;;;;;4953009;28;20204;-72
2020/12/26 10:24:50;;;;;;;9.90;3.70;;;;;;;;;;4959099;28;20185;-73
2020/12/26 10:27:15;;;;;;;10.13;3.73;;;;;;;;;;4952881;28;20588;-74
2020/12/26 10:29:40;;;;;;;8.80;3.90;;;;;;;;;;4949826;28;20488;-74
2020/12/26 10:32:05;;;;;;;11.98;4.63;;;;;;;;;;4955883;28;20184;-72
2020/12/26 10:34:30;;;;;;;5.37;4.23;;;;;;;;;;4948027;28;20224;-73
2020/12/26 10:36:56;;;;;;;7.33;3.97;;;;;;;;;;4953770;28;20188;-73
2020/12/26 10:39:21;;;;;;;6.87;3.87;;;;;;;;;;4949365;28;20306;-73
2020/12/26 10:41:46;;;;;;;7.60;4.40;;;;;;;;;;4949961;28;20177;-74
2020/12/26 10:44:11;;;;;;;7.60;3.77;;;;;;;;;;4949116;28;20630;-73
2020/12/26 10:46:37;;;;;;;6.47;3.67;;;;;;;;;;4957586;28;20205;-72
2020/12/26 10:49:02;;;;;;;8.30;4.20;;;;;;;;;;4954118;28;20596;-73
2020/12/26 10:51:27;;;;;;;5.77;4.07;;;;;;;;;;4958555;28;20284;-73
2020/12/26 10:53:52;;;;;;;6.03;3.78;;;;;;;;;;4958805;28;20207;-73
2020/12/26 10:56:17;;;;;;;8.50;5.03;;;;;;;;;;4957991;28;20291;-72
2020/12/26 10:58:42;;;;;;;7.30;3.80;;;;;;;;;;4955272;28;20580;-73
2020/12/26 11:01:08;;;;;;;6.23;3.83;;;;;;;;;;4956041;28;20173;-72
2020/12/26 11:03:33;;;;;;;7.97;4.13;;;;;;;;;;4954471;28;20705;-72
2020/12/26 11:05:59;;;;;;;5.97;4.23;;;;;;;;;;4953310;28;20181;-72
2020/12/26 11:08:24;;;;;;;7.47;4.03;;;;;;;;;;4953694;28;20185;-73
2020/12/26 11:10:50;;;;;;;8.97;3.43;;;;;;;;;;4955676;28;20231;-72
2020/12/26 11:13:15;;;;;;;5.33;3.63;;;;;;;;;;4955080;28;20235;-72
2020/12/26 11:15:43;;;;;;;7.40;3.30;;;;;;;;;;4958947;28;20183;-73
2020/12/26 11:18:08;;;;;;;6.00;3.60;;;;;;;;;;4953069;28;20196;-73
2020/12/26 11:20:34;;;;;;;6.00;3.40;;;;;;;;;;4953361;28;20238;-72
2020/12/26 11:22:59;;;;;;;6.53;3.87;;;;;;;;;;4954776;28;20290;-73
2020/12/26 11:25:24;;;;;;;6.57;3.45;;;;;;;;;;4952365;28;20228;-73
2020/12/26 11:27:49;;;;;;;10.63;3.90;;;;;;;;;;4955381;28;20688;-73
2020/12/26 11:30:14;;;;;;;6.27;3.83;;;;;;;;;;4954615;28;20275;-73
2020/12/26 11:32:39;;;;;;;8.20;4.13;;;;;;;;;;4954591;28;20200;-73
2020/12/26 11:35:05;;;;;;;6.63;3.97;;;;;;;;;;4955773;28;20702;-72
2020/12/26 11:37:31;;;;;;;7.43;3.90;;;;;;;;;;4958999;28;20180;-73
2020/12/26 11:39:56;;;;;;;7.47;3.27;;;;;;;;;;4957736;28;20241;-72
2020/12/26 11:42:22;;;;;;;5.57;3.57;;;;;;;;;;4952765;28;20268;-72
2020/12/26 11:44:47;;;;;;;13.80;4.77;;;;;;;;;;4953069;28;20267;-72
2020/12/26 11:47:12;;;;;;;8.47;3.70;;;;;;;;;;4954347;28;20208;-72
2020/12/26 11:49:37;;;;;;;6.40;3.63;;;;;;;;;;4952324;28;20197;-72
2020/12/26 11:52:03;;;;;;;11.20;4.17;;;;;;;;;;4959606;28;20230;-72
2020/12/26 11:54:28;;;;;;;5.83;3.67;;;;;;;;;;4953648;28;20304;-72
2020/12/26 11:56:53;;;;;;;7.63;4.13;;;;;;;;;;4950191;28;20282;-72
2020/12/26 11:59:19;;;;;;;6.03;3.70;;;;;;;;;;4953099;28;20794;-72
2020/12/26 12:01:44;;;;;;;6.20;3.43;;;;;;;;;;4952225;28;20189;-72
2020/12/26 12:04:10;;;;;;;7.13;3.33;;;;;;;;;;4952351;28;20216;-72
2020/12/26 12:06:35;;;;;;;4.03;3.23;;;;;;;;;;4955957;28;20176;-72
2020/12/26 12:09:00;;;;;;;5.10;3.30;;;;;;;;;;4952469;28;20263;-72
2020/12/26 12:11:25;;;;;;;7.13;4.47;;;;;;;;;;4952658;28;20231;-72
2020/12/26 12:13:50;;;;;;;7.67;3.40;;;;;;;;;;4954240;28;21214;-72
2020/12/26 12:16:15;;;;;;;4.63;3.40;;;;;;;;;;4956037;28;20194;-72
2020/12/26 12:18:41;;;;;;;6.37;3.20;;;;;;;;;;4952957;28;20213;-72
2020/12/26 12:21:06;;;;;;;5.97;2.77;;;;;;;;;;4956703;28;20552;-72
2020/12/26 12:23:31;;;;;;;6.47;2.87;;;;;;;;;;4958860;28;20200;-72
2020/12/26 12:25:57;;;;;;;4.17;3.13;;;;;;;;;;4953755;28;20211;-72
2020/12/26 12:28:22;;;;;;;6.50;3.40;;;;;;;;;;4955574;28;20177;-72
2020/12/26 12:30:47;;;;;;;7.17;4.03;;;;;;;;;;4954813;28;20635;-74
2020/12/26 12:33:12;;;;;;;5.87;3.20;;;;;;;;;;4950329;28;20853;-72
2020/12/26 12:35:38;;;;;;;4.30;3.13;;;;;;;;;;4951987;28;20264;-72
2020/12/26 12:38:03;;;;;;;5.73;2.90;;;;;;;;;;4957814;28;20207;-74
2020/12/26 12:40:28;;;;;;;4.97;3.20;;;;;;;;;;4967459;28;20283;-74
2020/12/26 12:42:53;;;;;;;6.00;3.27;;;;;;;;;;4962215;28;20208;-73
2020/12/26 12:45:19;;;;;;;5.20;3.87;;;;;;;;;;4954679;28;20718;-72
2020/12/26 12:47:44;;;;;;;6.10;3.80;;;;;;;;;;4952519;28;22376;-74
2020/12/26 12:50:09;;;;;;;9.30;4.27;;;;;;;;;;4955212;28;20184;-72
2020/12/26 12:52:35;;;;;;;6.70;3.07;;;;;;;;;;4953833;28;20195;-72
2020/12/26 12:55:00;;;;;;;7.57;3.47;;;;;;;;;;4951798;28;20189;-73
2020/12/26 12:57:25;;;;;;;6.57;3.90;;;;;;;;;;4955766;28;20549;-73
2020/12/26 12:59:50;;;;;;;8.13;4.53;;;;;;;;;;4956903;28;20294;-73
2020/12/26 13:02:16;;;;;;;8.27;4.30;;;;;;;;;;4972526;28;20665;-73
2020/12/26 13:04:41;;;;;;;6.37;4.17;;;;;;;;;;4988181;28;20211;-73
2020/12/26 13:07:06;;;;;;;6.03;3.70;;;;;;;;;;4958758;28;20227;-73
2020/12/26 13:09:31;;;;;;;9.50;3.70;;;;;;;;;;4957020;28;20561;-73
2020/12/26 13:11:56;;;;;;;9.03;4.63;;;;;;;;;;4961424;28;20188;-73
2020/12/26 13:14:22;;;;;;;6.40;4.57;;;;;;;;;;4964122;28;20204;-73
2020/12/26 13:16:47;;;;;;;3.93;3.50;;;;;;;;;;4959975;28;20188;-73
2020/12/26 13:19:12;;;;;;;6.20;3.97;;;;;;;;;;4957416;28;20208;-73
2020/12/26 13:21:37;;;;;;;6.23;3.90;;;;;;;;;;4960437;28;20181;-73
2020/12/26 13:24:03;;;;;;;8.93;4.00;;;;;;;;;;4964177;28;20215;-73
2020/12/26 13:26:28;;;;;;;9.17;4.30;;;;;;;;;;4964818;28;20658;-73
2020/12/26 13:28:54;;;;;;;5.07;4.10;;;;;;;;;;4963132;28;20755;-73
2020/12/26 13:31:25;;;;;;;6.60;4.60;;;;;;;;;;4952100;28;20181;-72
2020/12/26 13:33:50;;;;;;;7.53;5.00;;;;;;;;;;4951087;28;20706;-73
2020/12/26 13:36:15;;;;;;;7.47;4.97;;;;;;;;;;4953920;28;20191;-73
2020/12/26 13:38:41;;;;;;;8.03;5.10;;;;;;;;;;4953531;28;20184;-73
2020/12/26 13:41:08;;;;;;;8.13;5.23;;;;;;;;;;4954563;28;20180;-73
2020/12/26 13:43:33;;;;;;;9.10;5.27;;;;;;;;;;4952785;28;20278;-73
2020/12/26 13:45:58;;;;;;;9.80;5.10;;;;;;;;;;4951722;28;20613;-73
2020/12/26 13:48:23;;;;;;;6.30;5.00;;;;;;;;;;4951750;28;20195;-73
2020/12/26 13:50:48;;;;;;;8.20;4.90;;;;;;;;;;4953663;28;20733;-73
2020/12/26 13:53:13;;;;;;;8.90;5.40;;;;;;;;;;4956931;28;20208;-73
2020/12/26 13:55:39;;;;;;;6.00;5.40;;;;;;;;;;4955974;28;20586;-73
2020/12/26 13:58:04;;;;;;;7.20;5.57;;;;;;;;;;4950779;28;20924;-73
2020/12/26 14:00:29;;;;;;;8.33;5.50;;;;;;;;;;4953794;28;20763;-73
2020/12/26 14:02:54;;;;;;;7.77;4.90;;;;;;;;;;4951005;28;20247;-73
2020/12/26 14:05:19;;;;;;;8.23;5.10;;;;;;;;;;4952637;28;20275;-73
2020/12/26 14:07:45;;;;;;;9.17;5.57;;;;;;;;;;4955555;28;20736;-73
2020/12/26 14:10:10;;;;;;;7.67;5.23;;;;;;;;;;4952862;28;20199;-73
2020/12/26 14:12:35;;;;;;;5.60;5.10;;;;;;;;;;4951074;28;20207;-73
2020/12/26 14:15:00;;;;;;;7.53;5.37;;;;;;;;;;4956901;28;20649;-73
2020/12/26 14:17:26;;;;;;;8.90;5.80;;;;;;;;;;4957288;28;20311;-74
2020/12/26 14:19:51;;;;;;;12.77;5.73;;;;;;;;;;4951385;28;20274;-73
2020/12/26 14:22:17;;;;;;;10.43;5.27;;;;;;;;;;4956936;28;20184;-73
2020/12/26 14:24:42;;;;;;;15.30;7.47;;;;;;;;;;4955135;28;20635;-72
2020/12/26 14:27:07;;;;;;;10.03;6.27;;;;;;;;;;4957248;28;20192;-73
2020/12/26 14:29:32;;;;;;;10.47;5.90;;;;;;;;;;4957121;28;20675;-73
2020/12/26 14:31:57;;;;;;;9.88;6.13;;;;;;;;;;4953585;28;20223;-73
2020/12/26 14:34:22;;;;;;;10.97;6.80;;;;;;;;;;4955766;28;20212;-73